createdAt,value
2022-12-16T00:02:11.766Z,99.90
2022-12-16T00:04:57.627Z,99.90
2022-12-16T00:07:43.138Z,99.90
2022-12-16T00:10:48.313Z,99.90
2022-12-16T00:13:34.613Z,99.90
2022-12-16T00:16:22.114Z,99.90
2022-12-16T00:19:07.851Z,99.90
2022-12-16T00:21:53.824Z,99.90
2022-12-16T00:24:40.058Z,99.90
2022-12-16T00:27:25.324Z,99.90
2022-12-16T00:30:11.529Z,99.90
2022-12-16T00:32:58.483Z,99.90
2022-12-16T00:35:46.005Z,99.90
2022-12-16T00:38:31.505Z,99.90
2022-12-16T00:41:16.744Z,99.90
2022-12-16T00:44:02.029Z,99.90
2022-12-16T00:46:47.557Z,99.90
2022-12-16T00:49:34.315Z,99.90
2022-12-16T00:52:20.222Z,99.90
2022-12-16T00:55:06.471Z,99.90
2022-12-16T00:57:52.232Z,99.90
2022-12-16T01:00:38.003Z,99.90
2022-12-16T01:03:23.458Z,99.90
2022-12-16T01:06:12.715Z,99.80
2022-12-16T01:08:58.236Z,99.30
2022-12-16T01:11:43.930Z,99.30
2022-12-16T01:14:29.541Z,99.30
2022-12-16T01:17:15.306Z,98.80
2022-12-16T01:20:01.154Z,98.10
2022-12-16T01:22:48.021Z,98.30
2022-12-16T01:25:33.568Z,98.80
2022-12-16T01:28:19.167Z,98.50
2022-12-16T01:31:04.689Z,98.50
2022-12-16T01:33:50.766Z,98.60
2022-12-16T01:36:36.008Z,98.50
2022-12-16T01:39:23.448Z,98.50
2022-12-16T01:42:11.691Z,98.50
2022-12-16T01:44:57.135Z,98.40
2022-12-16T01:47:42.969Z,98.60
2022-12-16T01:50:29.296Z,98.60
2022-12-16T01:53:15.023Z,98.70
2022-12-16T01:56:02.366Z,98.60
2022-12-16T01:58:48.171Z,98.50
2022-12-16T02:01:33.673Z,98.50
2022-12-16T02:04:19.424Z,98.70
2022-12-16T02:07:04.975Z,98.50
2022-12-16T02:09:50.532Z,98.30
2022-12-16T02:12:44.656Z,97.90
2022-12-16T02:15:34.591Z,98.40
2022-12-16T02:18:25.695Z,98.90
2022-12-16T02:21:37.724Z,98.90
2022-12-16T02:24:41.331Z,98.80
2022-12-16T02:27:36.727Z,98.70
2022-12-16T02:30:40.620Z,98.80
2022-12-16T02:33:41.586Z,98.80
2022-12-16T02:36:34.065Z,99.00
2022-12-16T02:39:21.175Z,98.80
2022-12-16T02:42:10.176Z,98.50
2022-12-16T02:44:59.511Z,98.40
2022-12-16T02:47:45.359Z,98.70
2022-12-16T02:50:33.625Z,98.70
2022-12-16T02:53:20.861Z,98.50
2022-12-16T02:56:11.660Z,98.50
2022-12-16T02:59:01.665Z,98.40
2022-12-16T03:01:51.031Z,98.60
2022-12-16T03:04:39.553Z,98.40
2022-12-16T03:07:26.533Z,98.50
2022-12-16T03:10:15.210Z,98.70
2022-12-16T03:13:01.440Z,98.70
2022-12-16T03:15:48.196Z,98.70
2022-12-16T03:18:33.785Z,98.80
2022-12-16T03:21:21.541Z,98.80
2022-12-16T03:24:08.468Z,98.70
2022-12-16T03:26:57.860Z,98.70
2022-12-16T03:29:47.247Z,99.20
2022-12-16T03:32:36.077Z,99.50
2022-12-16T03:35:23.649Z,99.60
2022-12-16T03:38:10.782Z,99.90
2022-12-16T03:40:57.127Z,99.90
2022-12-16T03:43:44.136Z,99.90
2022-12-16T03:46:30.006Z,99.90
2022-12-16T03:49:15.832Z,99.90
2022-12-16T03:52:01.308Z,99.90
2022-12-16T03:54:46.935Z,99.90
2022-12-16T03:57:32.511Z,99.90
2022-12-16T04:00:20.004Z,99.90
2022-12-16T04:03:05.943Z,99.90
2022-12-16T04:05:51.620Z,99.90
2022-12-16T04:08:37.378Z,99.90
2022-12-16T04:11:41.665Z,99.90
2022-12-16T04:14:50.302Z,99.90
2022-12-16T04:17:58.719Z,99.90
2022-12-16T04:21:03.750Z,99.90
2022-12-16T04:24:09.866Z,99.90
2022-12-16T04:27:15.864Z,99.90
2022-12-16T04:30:19.912Z,99.90
2022-12-16T04:33:26.539Z,99.90
2022-12-16T04:36:30.535Z,99.90
2022-12-16T04:39:34.902Z,99.90
2022-12-16T04:42:39.008Z,99.90
2022-12-16T04:45:42.973Z,99.90
2022-12-16T04:48:48.982Z,99.90
2022-12-16T04:51:53.189Z,99.90
2022-12-16T04:54:57.219Z,99.90
2022-12-16T04:58:02.723Z,99.90
2022-12-16T05:01:07.325Z,99.90
2022-12-16T05:04:12.623Z,99.90
2022-12-16T05:07:16.688Z,99.90
2022-12-16T05:10:20.734Z,99.90
2022-12-16T05:13:24.892Z,99.90
2022-12-16T05:16:28.838Z,99.90
2022-12-16T05:19:34.450Z,99.90
2022-12-16T05:22:38.800Z,99.90
2022-12-16T05:25:43.002Z,99.90
2022-12-16T05:28:47.204Z,99.90
2022-12-16T05:31:51.319Z,99.90
2022-12-16T05:34:56.531Z,99.90
2022-12-16T05:38:00.603Z,99.90
2022-12-16T05:41:04.611Z,99.90
2022-12-16T05:44:08.661Z,99.90
2022-12-16T05:47:12.771Z,99.90
2022-12-16T05:50:18.884Z,99.90
2022-12-16T05:53:23.546Z,99.90
2022-12-16T05:56:27.523Z,99.90
2022-12-16T05:59:31.880Z,99.90
2022-12-16T06:02:35.862Z,99.90
2022-12-16T06:05:41.910Z,99.90
2022-12-16T06:08:45.901Z,99.90
2022-12-16T06:11:50.220Z,99.90
2022-12-16T06:14:54.595Z,99.90
2022-12-16T06:18:00.500Z,99.90
2022-12-16T06:21:05.728Z,99.90
2022-12-16T06:24:09.875Z,99.90
2022-12-16T06:27:13.878Z,99.90
2022-12-16T06:30:17.837Z,99.90
2022-12-16T06:33:21.825Z,99.90
2022-12-16T06:36:27.524Z,99.90
2022-12-16T06:39:31.853Z,99.90
2022-12-16T06:42:35.925Z,99.90
2022-12-16T06:45:40.039Z,99.90
2022-12-16T06:48:44.118Z,99.90
2022-12-16T06:51:49.454Z,99.90
2022-12-16T06:54:53.891Z,99.90
2022-12-16T06:57:57.977Z,99.90
2022-12-16T07:01:02.937Z,99.90
2022-12-16T07:04:07.471Z,99.90
2022-12-16T07:07:17.794Z,99.90
2022-12-16T07:10:24.868Z,99.90
2022-12-16T07:13:29.283Z,99.90
2022-12-16T07:16:33.399Z,99.90
2022-12-16T07:19:37.369Z,99.90
2022-12-16T07:22:43.454Z,99.90
2022-12-16T07:25:50.755Z,99.90
2022-12-16T07:28:55.063Z,99.90
2022-12-16T07:31:59.265Z,99.90
2022-12-16T07:35:03.462Z,99.90
2022-12-16T07:38:08.464Z,99.90
2022-12-16T07:41:12.872Z,99.90
2022-12-16T07:44:17.015Z,99.90
2022-12-16T07:47:21.132Z,99.90
2022-12-16T07:50:25.756Z,99.90
2022-12-16T07:53:31.766Z,99.90
2022-12-16T07:56:36.186Z,99.90
2022-12-16T07:59:40.101Z,99.90
2022-12-16T08:02:44.377Z,99.90
2022-12-16T08:05:48.871Z,99.90
2022-12-16T08:08:54.343Z,99.90
2022-12-16T08:11:58.996Z,99.90
2022-12-16T08:15:03.137Z,99.90
2022-12-16T08:18:08.218Z,99.90
2022-12-16T08:21:13.025Z,99.90
2022-12-16T08:24:18.606Z,99.90
2022-12-16T08:27:22.551Z,99.90
2022-12-16T08:30:27.685Z,99.90
2022-12-16T08:33:32.534Z,99.90
2022-12-16T08:36:36.676Z,99.90
2022-12-16T08:39:42.261Z,99.90
2022-12-16T08:42:47.811Z,99.90
2022-12-16T08:45:52.111Z,99.90
2022-12-16T08:48:57.851Z,99.90
2022-12-16T08:52:01.931Z,99.90
2022-12-16T08:55:07.664Z,99.90
2022-12-16T08:58:12.230Z,99.90
2022-12-16T09:01:16.523Z,99.90
2022-12-16T09:04:21.297Z,99.90
2022-12-16T09:07:25.803Z,99.90
2022-12-16T09:10:35.968Z,99.90
2022-12-16T09:13:43.776Z,99.90
2022-12-16T09:16:48.368Z,99.90
2022-12-16T09:19:53.980Z,99.90
2022-12-16T09:23:00.109Z,99.90
2022-12-16T09:26:05.230Z,99.90
2022-12-16T09:29:09.804Z,99.90
2022-12-16T09:32:13.735Z,99.90
2022-12-16T09:35:17.977Z,99.90
2022-12-16T09:38:22.372Z,99.90
2022-12-16T09:41:41.258Z,99.90
2022-12-16T09:44:58.494Z,99.90
2022-12-16T09:48:06.531Z,99.90
2022-12-16T09:51:12.200Z,98.30
2022-12-16T09:54:16.581Z,97.60
2022-12-16T09:57:23.475Z,96.20
2022-12-16T10:00:36.336Z,94.50
2022-12-16T10:03:42.154Z,92.80
2022-12-16T10:06:50.399Z,91.00
2022-12-16T10:10:01.037Z,90.10
2022-12-16T10:13:08.749Z,87.90
2022-12-16T10:16:15.689Z,87.10
2022-12-16T10:19:23.724Z,86.10
2022-12-16T10:22:31.507Z,84.40
2022-12-16T10:25:37.814Z,82.80
2022-12-16T10:28:45.407Z,83.60
2022-12-16T10:31:50.026Z,84.00
2022-12-16T10:34:54.820Z,84.10
2022-12-16T10:37:59.361Z,87.90
2022-12-16T10:41:20.441Z,86.90
2022-12-16T10:44:32.820Z,85.70
2022-12-16T10:47:36.670Z,81.60
2022-12-16T10:50:41.226Z,79.70
2022-12-16T10:53:46.040Z,79.10
2022-12-16T10:57:00.318Z,77.70
2022-12-16T11:00:05.771Z,76.70
2022-12-16T11:03:10.033Z,74.50
2022-12-16T11:06:18.135Z,77.30
2022-12-16T11:09:38.888Z,78.70
2022-12-16T11:12:44.024Z,77.80
2022-12-16T11:15:50.541Z,79.90
2022-12-16T11:19:07.487Z,83.10
2022-12-16T11:22:24.226Z,88.60
2022-12-16T11:25:32.888Z,90.00
2022-12-16T11:28:36.928Z,90.00
2022-12-16T11:31:42.426Z,90.80
2022-12-16T11:34:46.848Z,90.20
2022-12-16T11:37:51.599Z,90.60
2022-12-16T11:40:55.974Z,90.90
2022-12-16T11:44:02.903Z,92.00
2022-12-16T11:47:08.803Z,93.00
2022-12-16T11:50:13.376Z,93.80
2022-12-16T11:53:18.286Z,93.60
2022-12-16T11:56:31.094Z,93.70
2022-12-16T11:59:40.586Z,95.10
2022-12-16T12:02:49.297Z,96.00
2022-12-16T12:05:55.452Z,95.70
2022-12-16T12:09:05.176Z,95.90
2022-12-16T12:12:11.352Z,96.00
2022-12-16T12:15:18.733Z,96.50
2022-12-16T12:18:33.020Z,96.00
2022-12-16T12:21:41.521Z,95.90
2022-12-16T12:24:51.344Z,95.50
2022-12-16T12:28:03.301Z,95.50
2022-12-16T12:31:20.064Z,95.90
2022-12-16T12:34:29.403Z,96.10
2022-12-16T12:37:39.568Z,96.00
2022-12-16T12:40:49.816Z,95.90
2022-12-16T12:44:12.156Z,96.30
2022-12-16T12:47:17.038Z,96.30
2022-12-16T12:50:25.635Z,96.80
2022-12-16T12:53:37.768Z,96.50
2022-12-16T12:56:48.482Z,96.70
2022-12-16T13:00:02.357Z,96.60
2022-12-16T13:03:09.631Z,96.70
2022-12-16T13:06:16.126Z,96.80
2022-12-16T13:09:20.635Z,96.80
2022-12-16T13:12:38.743Z,97.60
2022-12-16T13:16:00.627Z,97.70
2022-12-16T13:19:08.032Z,97.30
2022-12-16T13:22:15.651Z,97.20
2022-12-16T13:25:24.021Z,97.00
2022-12-16T13:28:38.805Z,97.10
2022-12-16T13:31:42.976Z,97.70
2022-12-16T13:34:47.598Z,98.00
2022-12-16T13:38:03.939Z,97.80
2022-12-16T13:41:09.256Z,98.70
2022-12-16T13:44:13.777Z,99.00
2022-12-16T13:47:17.873Z,98.60
2022-12-16T13:50:50.338Z,98.30
2022-12-16T13:54:10.501Z,99.10
2022-12-16T13:57:18.201Z,99.50
2022-12-16T14:00:23.199Z,98.90
2022-12-16T14:03:30.752Z,99.60
2022-12-16T14:06:37.895Z,99.60
2022-12-16T14:09:53.825Z,99.40
2022-12-16T14:13:05.451Z,99.80
2022-12-16T14:16:16.662Z,99.90
2022-12-16T14:19:28.256Z,99.90
2022-12-16T14:22:38.740Z,99.90
2022-12-16T14:25:44.301Z,99.90
2022-12-16T14:28:49.323Z,99.90
2022-12-16T14:31:54.850Z,99.90
2022-12-16T14:34:58.993Z,99.90
2022-12-16T14:38:03.239Z,99.90
2022-12-16T14:41:10.513Z,99.90
2022-12-16T14:44:14.656Z,99.90
2022-12-16T14:47:18.616Z,99.90
2022-12-16T14:50:22.588Z,99.90
2022-12-16T14:53:33.157Z,99.90
2022-12-16T14:56:40.408Z,99.90
2022-12-16T14:59:44.850Z,99.90
2022-12-16T15:02:50.718Z,99.90
2022-12-16T15:05:56.895Z,99.90
2022-12-16T15:09:05.217Z,99.90
2022-12-16T15:12:12.756Z,99.90
2022-12-16T15:15:17.496Z,99.90
2022-12-16T15:18:21.656Z,99.90
2022-12-16T15:21:26.256Z,99.90
2022-12-16T15:24:35.101Z,99.90
2022-12-16T15:27:45.244Z,99.90
2022-12-16T15:31:04.747Z,99.90
2022-12-16T15:34:08.550Z,99.90
2022-12-16T15:37:12.907Z,99.90
2022-12-16T15:40:16.812Z,99.90
2022-12-16T15:43:22.292Z,99.90
2022-12-16T15:46:35.592Z,99.90
2022-12-16T15:49:41.285Z,99.90
2022-12-16T15:52:52.635Z,99.90
2022-12-16T15:56:04.115Z,99.90
2022-12-16T15:59:30.603Z,99.90
2022-12-16T16:02:37.816Z,99.90
2022-12-16T16:05:42.612Z,99.90
2022-12-16T16:08:46.682Z,99.90
2022-12-16T16:11:50.749Z,99.90
2022-12-16T16:14:55.072Z,99.90
2022-12-16T16:18:01.014Z,99.90
2022-12-16T16:21:05.626Z,99.90
2022-12-16T16:24:09.761Z,99.90
2022-12-16T16:27:14.471Z,99.90
2022-12-16T16:30:19.158Z,99.90
2022-12-16T16:33:24.394Z,99.90
2022-12-16T16:36:31.188Z,99.90
2022-12-16T16:39:35.425Z,99.90
2022-12-16T16:42:39.440Z,99.90
2022-12-16T16:45:43.681Z,99.90
2022-12-16T16:48:49.374Z,99.90
2022-12-16T16:51:53.459Z,99.90
2022-12-16T16:54:57.553Z,99.90
2022-12-16T16:58:01.740Z,99.90
2022-12-16T17:01:05.871Z,99.90
2022-12-16T17:04:11.589Z,99.90
2022-12-16T17:07:15.357Z,99.90
2022-12-16T17:10:19.791Z,99.90
2022-12-16T17:13:23.857Z,99.90
2022-12-16T17:16:28.612Z,99.90
2022-12-16T17:19:34.274Z,99.90
2022-12-16T17:22:38.663Z,99.90
2022-12-16T17:25:42.664Z,99.90
2022-12-16T17:28:46.816Z,99.90
2022-12-16T17:31:51.095Z,99.90
2022-12-16T17:34:56.918Z,99.90
2022-12-16T17:38:01.139Z,99.90
2022-12-16T17:41:09.788Z,99.90
2022-12-16T17:44:13.872Z,99.90
2022-12-16T17:47:17.930Z,99.90
2022-12-16T17:50:24.057Z,99.90
2022-12-16T17:53:28.787Z,99.90
2022-12-16T17:56:32.821Z,99.90
2022-12-16T17:59:37.357Z,99.90
2022-12-16T18:02:49.056Z,99.90
2022-12-16T18:05:54.999Z,99.90
2022-12-16T18:08:58.921Z,99.90
2022-12-16T18:12:02.919Z,99.90
2022-12-16T18:15:07.300Z,99.90
2022-12-16T18:18:11.722Z,99.90
2022-12-16T18:21:26.638Z,99.90
2022-12-16T18:24:31.032Z,99.90
2022-12-16T18:27:35.091Z,99.90
2022-12-16T18:30:39.244Z,99.90
2022-12-16T18:33:43.244Z,99.90
2022-12-16T18:36:49.049Z,99.90
2022-12-16T18:39:53.312Z,99.90
2022-12-16T18:42:57.742Z,99.90
2022-12-16T18:46:01.973Z,99.90
2022-12-16T18:49:06.430Z,99.90
2022-12-16T18:52:12.591Z,99.90
2022-12-16T18:55:16.680Z,99.90
2022-12-16T18:58:59.368Z,99.90
2022-12-16T19:01:45.194Z,99.90
2022-12-16T19:04:49.667Z,99.90
2022-12-16T19:07:55.072Z,99.90
2022-12-16T19:10:59.376Z,99.90
2022-12-16T19:14:03.443Z,99.90
2022-12-16T19:17:07.580Z,99.90
2022-12-16T19:20:11.726Z,99.90
2022-12-16T19:23:17.657Z,99.90
2022-12-16T19:26:22.111Z,99.90
2022-12-16T19:29:26.400Z,99.90
2022-12-16T19:32:30.637Z,99.90
2022-12-16T19:35:34.663Z,99.90
2022-12-16T19:38:40.118Z,99.90
2022-12-16T19:41:45.556Z,99.90
2022-12-16T19:44:49.811Z,99.90
2022-12-16T19:47:53.969Z,99.90
2022-12-16T19:51:00.638Z,99.90
2022-12-16T19:54:06.362Z,99.90
2022-12-16T19:57:10.300Z,99.90
2022-12-16T20:00:14.692Z,99.90
2022-12-16T20:03:18.975Z,99.90
2022-12-16T20:06:24.556Z,99.90
2022-12-16T20:09:30.431Z,99.90
2022-12-16T20:12:34.664Z,99.90
2022-12-16T20:15:39.048Z,99.90
2022-12-16T20:18:43.221Z,99.90
2022-12-16T20:21:49.031Z,99.90
2022-12-16T20:24:56.403Z,99.90
2022-12-16T20:28:00.868Z,99.90
2022-12-16T20:31:05.428Z,99.90
2022-12-16T20:34:11.299Z,99.90
2022-12-16T20:37:15.667Z,99.90
2022-12-16T20:40:22.440Z,99.90
2022-12-16T20:43:26.785Z,99.90
2022-12-16T20:46:30.878Z,99.90
2022-12-16T20:49:56.066Z,99.90
2022-12-16T20:53:00.239Z,99.90
2022-12-16T20:56:06.076Z,99.90
2022-12-16T20:59:10.619Z,99.90
2022-12-16T21:02:23.249Z,99.90
2022-12-16T21:05:28.862Z,99.90
2022-12-16T21:08:32.986Z,99.90
2022-12-16T21:11:38.115Z,99.90
2022-12-16T21:14:42.992Z,99.90
2022-12-16T21:17:47.539Z,99.90
2022-12-16T21:20:51.949Z,99.90
2022-12-16T21:23:56.354Z,99.90
2022-12-16T21:27:01.739Z,99.90
2022-12-16T21:30:06.125Z,99.90
2022-12-16T21:33:10.323Z,99.90
2022-12-16T21:36:14.358Z,99.90
2022-12-16T21:39:18.607Z,99.90
2022-12-16T21:42:24.111Z,99.90
2022-12-16T21:45:28.953Z,99.90
2022-12-16T21:48:33.127Z,99.90
2022-12-16T21:51:37.155Z,99.90
2022-12-16T21:54:44.385Z,99.90
2022-12-16T21:57:50.205Z,99.90
2022-12-16T22:00:58.795Z,99.90
2022-12-16T22:04:04.506Z,99.90
2022-12-16T22:07:11.637Z,99.90
2022-12-16T22:10:16.374Z,99.90
2022-12-16T22:13:22.712Z,99.90
2022-12-16T22:16:27.001Z,99.90
2022-12-16T22:19:31.091Z,99.90
2022-12-16T22:22:35.195Z,99.90
2022-12-16T22:25:39.348Z,99.90
2022-12-16T22:28:45.010Z,99.90
2022-12-16T22:31:49.557Z,99.90
2022-12-16T22:34:55.554Z,99.90
2022-12-16T22:37:59.896Z,99.90
2022-12-16T22:41:12.127Z,99.90
2022-12-16T22:44:18.185Z,99.90
2022-12-16T22:47:22.319Z,99.90
2022-12-16T22:50:26.416Z,99.90
2022-12-16T22:53:31.694Z,99.90
2022-12-16T22:56:36.039Z,99.90
2022-12-16T22:59:41.479Z,99.90
2022-12-16T23:02:45.689Z,99.90
2022-12-16T23:05:49.725Z,99.90
2022-12-16T23:08:54.040Z,99.90
2022-12-16T23:11:59.631Z,99.90
2022-12-16T23:15:05.349Z,99.90
2022-12-16T23:18:09.605Z,99.90
2022-12-16T23:21:14.526Z,99.90
2022-12-16T23:24:19.130Z,99.90
2022-12-16T23:27:23.459Z,99.90
2022-12-16T23:30:30.113Z,99.90
2022-12-16T23:33:34.492Z,99.90
2022-12-16T23:36:39.374Z,99.90
2022-12-16T23:39:43.713Z,99.90
2022-12-16T23:42:47.756Z,99.90
2022-12-16T23:45:53.335Z,99.90
2022-12-16T23:49:00.592Z,99.90
2022-12-16T23:52:04.706Z,99.90
2022-12-16T23:55:08.868Z,99.90
2022-12-16T23:58:17.031Z,99.90
